ENTCENNA

Guest
Details From ENTC - Tromso Langnes
To ENNA - BANAK
Flight Number -
Tags generated
Created
Modified
Stats Distance 127 nm / 236 km
Max Altitude 7,100 ft / 2,164 m
Waypoints 3
Social Downloads 5
Likes 0
Share VATSIM

Download

Looking for another format? Having issues loading an existing format? Contact us
Advertisement - Login to hide

Notes

Basic altitude profile: - Ascent Rate: 2500ft/min - Ascent Speed: 250kts - Cruise Altitude: 35000ft - Cruise Speed: 420kts - Descent Rate: 1500ft/min - Descent Speed: 250kts Options: - Use NATs: yes - Use PACOTS: yes - Use low airways: yes - Use high airways: no

Route

ENTC ATA ENNA

ID Type Via Altitude (ft/m) Position (lat/lon) Dist (leg/tot) Name
O ENTC APT - 0 / 0 69.68287 / 18.91936 - / 0 nm Tromso Langnes
ATA VOR - 7,100 / 2,164 69.97758 / 23.37182 93 / 93 nm ALTA VOR-DME
O ENNA APT - 0 / 0 70.06881 / 24.97349 33 / 127 nm BANAK

Altitude Profile

Advertisement - Login to hide

ENTC

Details ICAO ENTC (TOS)
Name Tromso Langnes
Region Norway
Timezone Europe/Oslo (UTC+2.0)
Stats Elevation 30 ft / 9 m (AMSL)
Location 69.683300° 18.919000°
Runways 1
Magnetic Variation 8.993° E

METAR

ENTC 220720Z 22023KT 9999 -SHRA SCT011 BKN027 04/01 Q0985 TEMPO 4500 SHRAGS VV012 RMK WIND 2600FT 18028KT

Decode

TAF

TAF ENTC 220500Z 2206/2306 23018KT 9999 -SHRA FEW012 BKN025 TEMPO 2206/2224 SHRA SCT015CB PROB30 TEMPO 2206/2212 23020G30KT BECMG 2303/2306 20008KT

Decode

Departure Runways

ID Width Length Bearing (true/mag) Surface Threshold Overrun Markings Lighting
01 148 ft / 45 m 7,829 ft / 2,386 m 13.04° / 4.05° ASPHALT 427 ft / 130 m 0 ft / 0 m UK-PREC-APP CENTERLINE EDGE THRESHOLD MALSF
19 148 ft / 45 m 7,829 ft / 2,386 m 193.05° / 184.06° ASPHALT 1,286 ft / 392 m 495 ft / 151 m UK-PREC-APP CENTERLINE EDGE THRESHOLD MALSF

ENNA

Details ICAO ENNA (LKL)
Name BANAK
Region Norway
Timezone Unknown
Stats Elevation 25 ft / 8 m (AMSL)
Location 70.068800° 24.973500°
Runways 1
Magnetic Variation 12.581° E

METAR

ENNA 220720Z 16008KT CAVOK 02/M02 Q0985 RMK WIND 1800FT 25018KT

Decode

TAF

TAF TAF ENNA 220500Z 2206/2306 18012KT 9999 FEW040 SCT080

Decode

Destination Runways

ID Width Length Bearing (true/mag) Surface Threshold Overrun Markings Lighting
17 148 ft / 45 m 9,104 ft / 2,775 m 175.43° / 162.85° ASPHALT 302 ft / 92 m 0 ft / 0 m APP EDGE THRESHOLD MALS
35 148 ft / 45 m 9,104 ft / 2,775 m 355.44° / 342.85° ASPHALT 302 ft / 92 m 0 ft / 0 m PREC-APP EDGE THRESHOLD MALS

Approach Navaids

Runway Type Ident Frequency Range Bearing (true/mag) Slope Elevation
17 DME BK 109.35 MHz 18 nm / 33 km - - 55 ft / 17 m (AMSL)
17 LOC-LOC BK 109.35 MHz 18 nm / 33 km 175.43° / 162.85 ° - 25 ft / 8 m (AMSL)
35 LOC-ILS BA 108.30 MHz 18 nm / 33 km 355.43° / 342.85 ° - 25 ft / 8 m (AMSL)
35 GS BA 108.30 MHz 10 nm / 19 km 355.87° / 343.28 ° 3.50° 25 ft / 8 m (AMSL)
35 OM OM - - 355.43° / 342.85 ° - 25 ft / 8 m (AMSL)
35 MM MM - - 355.43° / 342.85 ° - 25 ft / 8 m (AMSL)

Popular Alternatives